This is the latest recevied weather packets stored in our database for station/object N3DOU-1. If no packets are shown the sender has not sent any weather packets the latest 10 day(s).
| Time | Temp. | Humidity | Pressure | Rain* | Wind** | Luminosity | Snow |
|---|---|---|---|---|---|---|---|
| 1777939885 | 19.44° C | 50% | 1010 hPa | 0 mm | - | - | - |
| 1777938983 | 20° C | 47% | 1010 hPa | 0 mm | - | - | - |
| 1777938083 | 20.56° C | 46% | 1010 hPa | 0 mm | - | - | - |
| 1777937183 | 21.11° C | 47% | 1010 hPa | 0 mm | - | - | - |
| 1777936287 | 21.67° C | 45% | 1009.9 hPa | 0 mm | - | - | - |
| 1777935382 | 22.22° C | 39% | 1009.9 hPa | 0 mm | - | - | - |
| 1777934483 | 22.78° C | 37% | 1009.7 hPa | 0 mm | - | - | - |
| 1777933584 | 23.33° C | 38% | 1009.8 hPa | 0 mm | - | - | - |
| 1777932683 | 23.33° C | 36% | 1009.8 hPa | 0 mm | - | - | - |
| 1777931782 | 23.89° C | 36% | 1010 hPa | 0 mm | - | - | - |
| 1777930885 | 23.89° C | 36% | 1010 hPa | 0 mm | - | - | - |
| 1777929985 | 24.44° C | 38% | 1010.1 hPa | 0 mm | - | - | - |
| 1777929086 | 24.44° C | 36% | 1010 hPa | 0 mm | - | - | - |
| 1777928185 | 24.44° C | 36% | 1010.1 hPa | 0 mm | - | - | - |
| 1777927285 | 24.44° C | 40% | 1010.1 hPa | 0 mm | - | - | - |
| 1777925483 | 23.89° C | 37% | 1010.6 hPa | 0 mm | - | - | - |
| 1777922785 | 23.89° C | 36% | 1011.4 hPa | 0 mm | - | - | - |
| 1777921885 | 23.33° C | 39% | 1011.6 hPa | 0 mm | - | - | - |
| 1777920085 | 23.33° C | 36% | 1011.8 hPa | 0 mm | - | - | - |
| 1777919184 | 23.33° C | 35% | 1011.9 hPa | 0 mm | - | - | - |
| 1777916486 | 22.78° C | 35% | 1012.7 hPa | 0 mm | - | - | - |
| 1777915585 | 22.22° C | 34% | 1012.7 hPa | 0 mm | - | - | - |
| 1777914685 | 21.67° C | 35% | 1013 hPa | 0 mm | - | - | - |
| 1777913785 | 22.22° C | 34% | 1013.1 hPa | 0 mm | - | - | - |
| 1777912885 | 21.67° C | 33% | 1013.3 hPa | 0 mm | - | - | - |
* Rain latest hour (hover to see other rain measurements)
** Current wind speed in m/s (hover to see current wind gust speed)